sensor_id;sensor_type;location;lat;lon;timestamp;pressure;altitude;pressure_sealevel;temperature;humidity
68329;BME280;55182;56.864;60.554;2023-02-23T00:01:38;76072.50;;;-143.60;76.41
68329;BME280;55182;56.864;60.554;2023-02-23T00:04:04;76062.44;;;-143.60;76.77
68329;BME280;55182;56.864;60.554;2023-02-23T00:06:31;76062.44;;;-143.60;76.82
68329;BME280;55182;56.864;60.554;2023-02-23T00:08:56;76058.44;;;-143.60;76.70
68329;BME280;55182;56.864;60.554;2023-02-23T00:11:22;76066.47;;;-143.60;76.78
68329;BME280;55182;56.864;60.554;2023-02-23T00:13:47;76066.47;;;-143.60;76.75
68329;BME280;55182;56.864;60.554;2023-02-23T00:16:14;76062.44;;;-143.60;76.90
68329;BME280;55182;56.864;60.554;2023-02-23T00:18:47;76058.44;;;-143.60;76.77
68329;BME280;55182;56.864;60.554;2023-02-23T00:21:14;76060.44;;;-143.60;76.75
68329;BME280;55182;56.864;60.554;2023-02-23T00:23:40;76058.44;;;-143.60;76.49
68329;BME280;55182;56.864;60.554;2023-02-23T00:26:06;76062.44;;;-143.60;76.67
68329;BME280;55182;56.864;60.554;2023-02-23T00:28:31;76062.44;;;-143.60;76.45
68329;BME280;55182;56.864;60.554;2023-02-23T00:30:57;76066.47;;;-143.60;76.82
68329;BME280;55182;56.864;60.554;2023-02-23T00:33:22;76080.53;;;-143.60;76.63
68329;BME280;55182;56.864;60.554;2023-02-23T00:35:47;76074.50;;;-143.60;76.70
68329;BME280;55182;56.864;60.554;2023-02-23T00:38:13;76078.53;;;-143.60;76.62
68329;BME280;55182;56.864;60.554;2023-02-23T00:40:39;76076.50;;;-143.60;76.70
68329;BME280;55182;56.864;60.554;2023-02-23T00:43:04;76080.53;;;-143.60;76.86
68329;BME280;55182;56.864;60.554;2023-02-23T00:45:30;76082.53;;;-143.60;76.89
68329;BME280;55182;56.864;60.554;2023-02-23T00:47:55;76082.53;;;-143.60;76.88
68329;BME280;55182;56.864;60.554;2023-02-23T00:50:21;76080.53;;;-143.60;76.96
68329;BME280;55182;56.864;60.554;2023-02-23T00:52:46;76078.53;;;-143.60;76.99
68329;BME280;55182;56.864;60.554;2023-02-23T00:55:12;76078.53;;;-143.60;76.73
68329;BME280;55182;56.864;60.554;2023-02-23T00:57:38;76074.50;;;-143.60;76.87
68329;BME280;55182;56.864;60.554;2023-02-23T01:00:04;76080.53;;;-143.60;76.78
68329;BME280;55182;56.864;60.554;2023-02-23T01:02:30;76080.53;;;-143.60;76.62
68329;BME280;55182;56.864;60.554;2023-02-23T01:04:56;76078.53;;;-143.60;76.70
68329;BME280;55182;56.864;60.554;2023-02-23T01:07:23;76070.50;;;-143.60;77.06
68329;BME280;55182;56.864;60.554;2023-02-23T01:09:49;76072.50;;;-143.60;77.03
68329;BME280;55182;56.864;60.554;2023-02-23T01:12:14;76076.50;;;-143.60;76.80
68329;BME280;55182;56.864;60.554;2023-02-23T01:14:42;76076.50;;;-143.60;76.62
68329;BME280;55182;56.864;60.554;2023-02-23T01:17:09;76070.50;;;-143.60;76.67
68329;BME280;55182;56.864;60.554;2023-02-23T01:19:35;76074.50;;;-143.60;76.51
68329;BME280;55182;56.864;60.554;2023-02-23T01:22:02;76074.50;;;-143.60;76.30
68329;BME280;55182;56.864;60.554;2023-02-23T01:24:27;76074.50;;;-143.60;76.44
68329;BME280;55182;56.864;60.554;2023-02-23T01:26:53;76074.50;;;-143.60;76.41
68329;BME280;55182;56.864;60.554;2023-02-23T01:29:18;76078.53;;;-143.60;76.19
68329;BME280;55182;56.864;60.554;2023-02-23T01:31:46;76076.50;;;-143.60;76.44
68329;BME280;55182;56.864;60.554;2023-02-23T01:34:15;76074.50;;;-143.60;76.35
68329;BME280;55182;56.864;60.554;2023-02-23T01:36:43;76076.50;;;-143.60;76.30
68329;BME280;55182;56.864;60.554;2023-02-23T01:39:13;76072.50;;;-143.60;76.32
68329;BME280;55182;56.864;60.554;2023-02-23T01:41:40;76072.50;;;-143.60;76.26
68329;BME280;55182;56.864;60.554;2023-02-23T01:46:35;76058.44;;;-143.60;76.06
68329;BME280;55182;56.864;60.554;2023-02-23T01:49:01;76074.50;;;-143.60;75.93
68329;BME280;55182;56.864;60.554;2023-02-23T01:51:29;76070.50;;;-143.60;76.07
68329;BME280;55182;56.864;60.554;2023-02-23T01:54:03;76072.50;;;-143.60;76.03
68329;BME280;55182;56.864;60.554;2023-02-23T01:56:32;76070.50;;;-143.60;76.04
68329;BME280;55182;56.864;60.554;2023-02-23T01:59:01;76066.47;;;-143.60;75.91
68329;BME280;55182;56.864;60.554;2023-02-23T02:01:28;76060.44;;;-143.60;76.12
68329;BME280;55182;56.864;60.554;2023-02-23T02:03:55;76054.41;;;-143.60;76.11
68329;BME280;55182;56.864;60.554;2023-02-23T02:06:21;76052.41;;;-143.60;76.30
68329;BME280;55182;56.864;60.554;2023-02-23T02:08:48;76048.38;;;-143.60;76.38
68329;BME280;55182;56.864;60.554;2023-02-23T02:11:16;76044.38;;;-143.60;76.12
68329;BME280;55182;56.864;60.554;2023-02-23T02:13:48;76042.34;;;-143.60;75.75
68329;BME280;55182;56.864;60.554;2023-02-23T02:16:28;76042.34;;;-143.60;75.97
68329;BME280;55182;56.864;60.554;2023-02-23T02:24:22;76042.34;;;-143.60;75.82
68329;BME280;55182;56.864;60.554;2023-02-23T02:26:58;76046.38;;;-143.60;75.99
68329;BME280;55182;56.864;60.554;2023-02-23T02:31:59;76046.38;;;-143.60;75.94
68329;BME280;55182;56.864;60.554;2023-02-23T02:40:04;76050.38;;;-143.60;76.12
68329;BME280;55182;56.864;60.554;2023-02-23T02:42:39;76050.38;;;-143.60;76.16
68329;BME280;55182;56.864;60.554;2023-02-23T02:47:46;76050.38;;;-143.60;76.35
68329;BME280;55182;56.864;60.554;2023-02-23T02:50:22;76050.38;;;-143.60;76.47
68329;BME280;55182;56.864;60.554;2023-02-23T02:52:53;76056.41;;;-143.60;76.49
68329;BME280;55182;56.864;60.554;2023-02-23T02:55:21;76054.41;;;-143.60;76.63
68329;BME280;55182;56.864;60.554;2023-02-23T02:57:50;76058.44;;;-143.60;76.43
68329;BME280;55182;56.864;60.554;2023-02-23T03:00:18;76056.41;;;-143.60;76.46
68329;BME280;55182;56.864;60.554;2023-02-23T03:02:45;76054.41;;;-143.60;76.48
68329;BME280;55182;56.864;60.554;2023-02-23T03:05:15;76054.41;;;-143.60;76.41
68329;BME280;55182;56.864;60.554;2023-02-23T03:07:44;76052.41;;;-143.60;76.64
68329;BME280;55182;56.864;60.554;2023-02-23T03:20:49;76042.34;;;-143.60;76.55
68329;BME280;55182;56.864;60.554;2023-02-23T03:28:29;76026.28;;;-143.60;76.59
68329;BME280;55182;56.864;60.554;2023-02-23T03:33:30;76018.25;;;-143.60;75.89
68329;BME280;55182;56.864;60.554;2023-02-23T03:36:05;76020.25;;;-143.60;75.89
68329;BME280;55182;56.864;60.554;2023-02-23T03:41:17;76026.28;;;-143.60;75.46
68329;BME280;55182;56.864;60.554;2023-02-23T03:43:49;76026.28;;;-143.60;75.36
68329;BME280;55182;56.864;60.554;2023-02-23T03:46:17;76030.31;;;-143.60;75.06
68329;BME280;55182;56.864;60.554;2023-02-23T03:48:44;76028.28;;;-143.60;74.80
68329;BME280;55182;56.864;60.554;2023-02-23T03:51:11;76028.28;;;-143.60;74.61
68329;BME280;55182;56.864;60.554;2023-02-23T03:53:44;76026.28;;;-143.60;74.63
68329;BME280;55182;56.864;60.554;2023-02-23T03:56:11;76036.31;;;-143.60;74.75
68329;BME280;55182;56.864;60.554;2023-02-23T03:58:42;76034.31;;;-143.60;74.50
68329;BME280;55182;56.864;60.554;2023-02-23T04:01:09;76030.31;;;-143.60;74.61
68329;BME280;55182;56.864;60.554;2023-02-23T04:03:38;76034.31;;;-143.60;74.61
68329;BME280;55182;56.864;60.554;2023-02-23T04:06:06;76030.31;;;-143.60;74.39
68329;BME280;55182;56.864;60.554;2023-02-23T04:08:34;76028.28;;;-143.60;74.38
68329;BME280;55182;56.864;60.554;2023-02-23T04:11:35;76026.28;;;-143.60;74.46
68329;BME280;55182;56.864;60.554;2023-02-23T04:13:53;76016.22;;;-143.60;74.27
68329;BME280;55182;56.864;60.554;2023-02-23T04:16:23;76022.25;;;-143.60;74.26
68329;BME280;55182;56.864;60.554;2023-02-23T04:18:48;76012.22;;;-143.60;74.06
68329;BME280;55182;56.864;60.554;2023-02-23T04:21:14;76006.19;;;-143.60;74.01
68329;BME280;55182;56.864;60.554;2023-02-23T04:23:39;75998.16;;;-143.60;73.88
68329;BME280;55182;56.864;60.554;2023-02-23T04:26:06;75990.09;;;-143.60;73.73
68329;BME280;55182;56.864;60.554;2023-02-23T04:28:31;75978.06;;;-143.60;73.74
68329;BME280;55182;56.864;60.554;2023-02-23T04:30:56;75978.06;;;-143.60;73.79
68329;BME280;55182;56.864;60.554;2023-02-23T04:33:22;75978.06;;;-143.60;73.57
68329;BME280;55182;56.864;60.554;2023-02-23T04:35:47;75964.00;;;-143.60;73.19
68329;BME280;55182;56.864;60.554;2023-02-23T04:38:13;75974.03;;;-143.60;73.05
68329;BME280;55182;56.864;60.554;2023-02-23T04:40:38;75968.00;;;-143.60;73.10
68329;BME280;55182;56.864;60.554;2023-02-23T04:43:04;75961.97;;;-143.60;73.01
68329;BME280;55182;56.864;60.554;2023-02-23T04:45:29;75964.00;;;-143.60;72.69
68329;BME280;55182;56.864;60.554;2023-02-23T04:47:55;75949.91;;;-143.60;72.58
68329;BME280;55182;56.864;60.554;2023-02-23T04:50:20;75939.88;;;-143.60;72.31
68329;BME280;55182;56.864;60.554;2023-02-23T04:52:46;75929.81;;;-143.60;72.34
68329;BME280;55182;56.864;60.554;2023-02-23T04:55:29;75925.81;;;-143.60;72.12
68329;BME280;55182;56.864;60.554;2023-02-23T04:57:58;75909.72;;;-143.60;72.18
68329;BME280;55182;56.864;60.554;2023-02-23T05:00:24;75897.69;;;-143.60;71.95
68329;BME280;55182;56.864;60.554;2023-02-23T05:02:50;75889.63;;;-143.60;71.59
68329;BME280;55182;56.864;60.554;2023-02-23T05:05:15;75873.56;;;-143.60;71.42
68329;BME280;55182;56.864;60.554;2023-02-23T05:07:41;75863.53;;;-143.60;71.06
68329;BME280;55182;56.864;60.554;2023-02-23T05:10:06;75857.50;;;-143.60;71.03
68329;BME280;55182;56.864;60.554;2023-02-23T05:12:32;75849.44;;;-143.60;70.98
68329;BME280;55182;56.864;60.554;2023-02-23T05:14:58;75837.41;;;-143.60;70.88
68329;BME280;55182;56.864;60.554;2023-02-23T05:17:24;75829.34;;;-143.60;70.30
68329;BME280;55182;56.864;60.554;2023-02-23T05:19:49;75821.31;;;-143.60;70.68
68329;BME280;55182;56.864;60.554;2023-02-23T05:22:15;75815.28;;;-143.60;70.18
68329;BME280;55182;56.864;60.554;2023-02-23T05:24:40;75797.22;;;-143.60;69.85
68329;BME280;55182;56.864;60.554;2023-02-23T05:27:07;75787.16;;;-143.60;69.09
68329;BME280;55182;56.864;60.554;2023-02-23T05:29:32;75779.13;;;-143.60;69.15
68329;BME280;55182;56.864;60.554;2023-02-23T05:31:57;75765.06;;;-143.60;68.65
68329;BME280;55182;56.864;60.554;2023-02-23T05:34:23;75757.03;;;-143.60;68.45
68329;BME280;55182;56.864;60.554;2023-02-23T05:36:48;75749.00;;;-143.60;68.30
68329;BME280;55182;56.864;60.554;2023-02-23T05:39:14;75742.97;;;-143.60;68.13
68329;BME280;55182;56.864;60.554;2023-02-23T05:41:39;75740.94;;;-143.60;68.30
68329;BME280;55182;56.864;60.554;2023-02-23T05:44:05;75749.00;;;-143.60;68.16
68329;BME280;55182;56.864;60.554;2023-02-23T05:46:30;75757.03;;;-143.60;67.98
68329;BME280;55182;56.864;60.554;2023-02-23T05:48:57;75761.03;;;-143.60;68.17
68329;BME280;55182;56.864;60.554;2023-02-23T05:51:23;75765.06;;;-143.60;68.57
68329;BME280;55182;56.864;60.554;2023-02-23T05:53:49;75761.03;;;-143.60;68.82
68329;BME280;55182;56.864;60.554;2023-02-23T05:56:15;75757.03;;;-143.60;68.38
68329;BME280;55182;56.864;60.554;2023-02-23T05:58:40;75744.97;;;-143.60;68.68
68329;BME280;55182;56.864;60.554;2023-02-23T06:01:06;75753.00;;;-143.60;69.08
68329;BME280;55182;56.864;60.554;2023-02-23T06:03:32;75761.03;;;-143.60;69.03
68329;BME280;55182;56.864;60.554;2023-02-23T06:05:57;75757.03;;;-143.60;69.36
68329;BME280;55182;56.864;60.554;2023-02-23T06:08:23;75755.00;;;-143.60;68.82
68329;BME280;55182;56.864;60.554;2023-02-23T06:10:49;75757.03;;;-143.60;69.13
68329;BME280;55182;56.864;60.554;2023-02-23T06:13:15;75757.03;;;-143.60;68.75
68329;BME280;55182;56.864;60.554;2023-02-23T06:15:41;75749.00;;;-143.60;68.42
68329;BME280;55182;56.864;60.554;2023-02-23T06:18:07;75736.94;;;-143.60;68.38
68329;BME280;55182;56.864;60.554;2023-02-23T06:20:32;75716.84;;;-143.60;68.10
68329;BME280;55182;56.864;60.554;2023-02-23T06:22:58;75680.69;;;-143.60;67.92
68329;BME280;55182;56.864;60.554;2023-02-23T06:25:23;75642.50;;;-143.60;67.28
68329;BME280;55182;56.864;60.554;2023-02-23T06:27:49;75614.38;;;-143.60;66.79
68329;BME280;55182;56.864;60.554;2023-02-23T06:30:14;75580.22;;;-143.60;66.15
68329;BME280;55182;56.864;60.554;2023-02-23T06:32:40;75578.19;;;-143.60;65.83
68329;BME280;55182;56.864;60.554;2023-02-23T06:35:09;75568.16;;;-143.60;65.54
68329;BME280;55182;56.864;60.554;2023-02-23T06:37:37;75572.19;;;-143.60;65.83
68329;BME280;55182;56.864;60.554;2023-02-23T06:40:03;75588.25;;;-143.60;65.82
68329;BME280;55182;56.864;60.554;2023-02-23T06:42:28;75610.34;;;-143.60;66.23
68329;BME280;55182;56.864;60.554;2023-02-23T06:44:54;75632.44;;;-143.60;66.95
68329;BME280;55182;56.864;60.554;2023-02-23T06:47:19;75628.44;;;-143.60;67.51
68329;BME280;55182;56.864;60.554;2023-02-23T06:49:45;75612.34;;;-143.60;68.19
68329;BME280;55182;56.864;60.554;2023-02-23T06:52:10;75586.25;;;-143.60;68.24
68329;BME280;55182;56.864;60.554;2023-02-23T06:54:35;75558.13;;;-143.60;67.83
68329;BME280;55182;56.864;60.554;2023-02-23T06:57:01;75552.09;;;-143.60;67.29
68329;BME280;55182;56.864;60.554;2023-02-23T06:59:26;75519.94;;;-143.60;66.57
68329;BME280;55182;56.864;60.554;2023-02-23T07:01:52;75511.91;;;-143.60;66.21
68329;BME280;55182;56.864;60.554;2023-02-23T07:04:17;75479.75;;;-143.60;66.23
68329;BME280;55182;56.864;60.554;2023-02-23T07:06:43;75451.63;;;-143.60;65.39
68329;BME280;55182;56.864;60.554;2023-02-23T07:09:09;75451.63;;;-143.60;64.92
68329;BME280;55182;56.864;60.554;2023-02-23T07:11:34;75435.56;;;-143.60;65.07
68329;BME280;55182;56.864;60.554;2023-02-23T07:14:00;75423.50;;;-143.60;65.28
68329;BME280;55182;56.864;60.554;2023-02-23T07:16:25;75391.34;;;-143.60;64.64
68329;BME280;55182;56.864;60.554;2023-02-23T07:18:51;75375.28;;;-143.60;64.40
68329;BME280;55182;56.864;60.554;2023-02-23T07:21:16;75369.25;;;-143.60;63.66
68329;BME280;55182;56.864;60.554;2023-02-23T07:23:42;75361.22;;;-143.60;63.62
68329;BME280;55182;56.864;60.554;2023-02-23T07:26:07;75357.19;;;-143.60;63.34
68329;BME280;55182;56.864;60.554;2023-02-23T07:28:33;75351.16;;;-143.60;63.03
68329;BME280;55182;56.864;60.554;2023-02-23T07:30:58;75339.13;;;-143.60;62.96
68329;BME280;55182;56.864;60.554;2023-02-23T07:33:24;75327.06;;;-143.60;63.01
68329;BME280;55182;56.864;60.554;2023-02-23T07:35:49;75308.97;;;-143.60;62.77
68329;BME280;55182;56.864;60.554;2023-02-23T07:38:15;75298.94;;;-143.60;62.69
68329;BME280;55182;56.864;60.554;2023-02-23T07:40:41;75278.84;;;-143.60;62.22
68329;BME280;55182;56.864;60.554;2023-02-23T07:43:06;75266.78;;;-143.60;62.41
68329;BME280;55182;56.864;60.554;2023-02-23T07:45:32;75258.75;;;-143.60;61.96
68329;BME280;55182;56.864;60.554;2023-02-23T07:47:58;75238.66;;;-143.60;62.41
68329;BME280;55182;56.864;60.554;2023-02-23T07:50:23;75232.63;;;-143.60;62.50
68329;BME280;55182;56.864;60.554;2023-02-23T07:52:49;75224.59;;;-143.60;62.43
68329;BME280;55182;56.864;60.554;2023-02-23T07:55:14;75216.56;;;-143.60;62.54
68329;BME280;55182;56.864;60.554;2023-02-23T07:57:40;75210.53;;;-143.60;62.29
68329;BME280;55182;56.864;60.554;2023-02-23T08:00:06;75198.47;;;-143.60;62.46
68329;BME280;55182;56.864;60.554;2023-02-23T08:02:37;75182.41;;;-143.60;62.21
68329;BME280;55182;56.864;60.554;2023-02-23T08:05:03;75166.34;;;-143.60;62.12
68329;BME280;55182;56.864;60.554;2023-02-23T08:07:30;75158.31;;;-143.60;61.67
68329;BME280;55182;56.864;60.554;2023-02-23T08:09:56;75162.31;;;-143.60;61.88
68329;BME280;55182;56.864;60.554;2023-02-23T08:12:21;75150.25;;;-143.60;61.99
68329;BME280;55182;56.864;60.554;2023-02-23T08:14:47;75148.25;;;-143.60;62.05
68329;BME280;55182;56.864;60.554;2023-02-23T08:17:12;75154.28;;;-143.60;61.91
68329;BME280;55182;56.864;60.554;2023-02-23T08:19:38;75156.28;;;-143.60;62.14
68329;BME280;55182;56.864;60.554;2023-02-23T08:22:03;75142.22;;;-143.60;62.54
68329;BME280;55182;56.864;60.554;2023-02-23T08:24:29;75128.16;;;-143.60;62.65
68329;BME280;55182;56.864;60.554;2023-02-23T08:26:54;75118.13;;;-143.60;62.30
68329;BME280;55182;56.864;60.554;2023-02-23T08:29:20;75104.06;;;-143.60;62.70
68329;BME280;55182;56.864;60.554;2023-02-23T08:31:45;75114.09;;;-143.60;61.85
68329;BME280;55182;56.864;60.554;2023-02-23T08:34:11;75122.13;;;-143.60;62.20
68329;BME280;55182;56.864;60.554;2023-02-23T08:36:37;75122.13;;;-143.60;62.61
68329;BME280;55182;56.864;60.554;2023-02-23T08:39:02;75120.13;;;-143.60;62.98
68329;BME280;55182;56.864;60.554;2023-02-23T08:41:28;75126.16;;;-143.60;62.67
68329;BME280;55182;56.864;60.554;2023-02-23T08:43:53;75136.19;;;-143.60;63.21
68329;BME280;55182;56.864;60.554;2023-02-23T08:46:18;75130.19;;;-143.60;63.03
68329;BME280;55182;56.864;60.554;2023-02-23T08:48:44;75128.16;;;-143.60;62.78
68329;BME280;55182;56.864;60.554;2023-02-23T08:51:09;75130.19;;;-143.60;63.09
68329;BME280;55182;56.864;60.554;2023-02-23T08:53:35;75136.19;;;-143.60;63.52
68329;BME280;55182;56.864;60.554;2023-02-23T08:56:01;75162.31;;;-143.60;63.01
68329;BME280;55182;56.864;60.554;2023-02-23T08:58:27;75154.28;;;-143.60;63.85
68329;BME280;55182;56.864;60.554;2023-02-23T09:00:53;75182.41;;;-143.60;64.60
68329;BME280;55182;56.864;60.554;2023-02-23T09:03:19;75194.47;;;-143.60;64.81
68329;BME280;55182;56.864;60.554;2023-02-23T09:05:45;75206.53;;;-143.60;65.42
68329;BME280;55182;56.864;60.554;2023-02-23T09:08:11;75202.50;;;-143.60;65.86
68329;BME280;55182;56.864;60.554;2023-02-23T09:10:37;75188.44;;;-143.60;66.57
68329;BME280;55182;56.864;60.554;2023-02-23T09:13:04;75152.28;;;-143.60;66.36
68329;BME280;55182;56.864;60.554;2023-02-23T09:15:30;75116.13;;;-143.60;65.54
68329;BME280;55182;56.864;60.554;2023-02-23T09:17:59;75085.97;;;-143.60;64.97
68329;BME280;55182;56.864;60.554;2023-02-23T09:20:25;75061.88;;;-143.60;65.04
68329;BME280;55182;56.864;60.554;2023-02-23T09:22:51;75057.84;;;-143.60;64.70
68329;BME280;55182;56.864;60.554;2023-02-23T09:25:17;75035.75;;;-143.60;64.57
68329;BME280;55182;56.864;60.554;2023-02-23T09:27:43;75009.63;;;-143.60;64.44
68329;BME280;55182;56.864;60.554;2023-02-23T09:30:09;74999.59;;;-143.60;63.23
68329;BME280;55182;56.864;60.554;2023-02-23T09:32:35;74995.56;;;-143.60;63.34
68329;BME280;55182;56.864;60.554;2023-02-23T09:35:00;74987.53;;;-143.60;63.29
68329;BME280;55182;56.864;60.554;2023-02-23T09:37:26;74965.44;;;-143.60;62.55
68329;BME280;55182;56.864;60.554;2023-02-23T09:39:51;74939.31;;;-143.60;62.36
68329;BME280;55182;56.864;60.554;2023-02-23T09:45:03;74891.13;;;-143.60;61.27
68329;BME280;55182;56.864;60.554;2023-02-23T09:50:01;74854.97;;;-143.60;60.76
68329;BME280;55182;56.864;60.554;2023-02-23T09:52:28;74850.94;;;-143.60;60.34
68329;BME280;55182;56.864;60.554;2023-02-23T09:54:59;74844.91;;;-143.60;60.35
68329;BME280;55182;56.864;60.554;2023-02-23T09:57:27;74867.00;;;-143.60;60.81
68329;BME280;55182;56.864;60.554;2023-02-23T09:59:57;74860.97;;;-143.60;60.84
68329;BME280;55182;56.864;60.554;2023-02-23T10:02:26;74867.00;;;-143.60;61.35
68329;BME280;55182;56.864;60.554;2023-02-23T10:05:08;74873.03;;;-143.60;61.04
68329;BME280;55182;56.864;60.554;2023-02-23T10:12:43;74901.16;;;-143.60;62.14
68329;BME280;55182;56.864;60.554;2023-02-23T10:20:20;74949.38;;;-143.60;62.46
68329;BME280;55182;56.864;60.554;2023-02-23T10:22:49;74967.44;;;-143.60;62.98
68329;BME280;55182;56.864;60.554;2023-02-23T10:25:16;74981.50;;;-143.60;63.22
68329;BME280;55182;56.864;60.554;2023-02-23T10:27:45;75005.63;;;-143.60;63.62
68329;BME280;55182;56.864;60.554;2023-02-23T10:30:22;75025.72;;;-143.60;64.17
68329;BME280;55182;56.864;60.554;2023-02-23T10:32:51;75039.78;;;-143.60;63.91
68329;BME280;55182;56.864;60.554;2023-02-23T10:35:17;75043.78;;;-143.60;64.56
68329;BME280;55182;56.864;60.554;2023-02-23T10:37:44;75045.81;;;-143.60;65.14
68329;BME280;55182;56.864;60.554;2023-02-23T10:40:17;75045.81;;;-143.60;65.24
68329;BME280;55182;56.864;60.554;2023-02-23T10:42:42;75057.84;;;-143.60;65.33
68329;BME280;55182;56.864;60.554;2023-02-23T10:45:13;75073.94;;;-143.60;65.46
68329;BME280;55182;56.864;60.554;2023-02-23T10:47:38;75063.88;;;-143.60;65.70
68329;BME280;55182;56.864;60.554;2023-02-23T10:50:05;75061.88;;;-143.60;65.52
68329;BME280;55182;56.864;60.554;2023-02-23T10:52:34;75059.88;;;-143.60;65.46
68329;BME280;55182;56.864;60.554;2023-02-23T10:55:04;75061.88;;;-143.60;65.85
68329;BME280;55182;56.864;60.554;2023-02-23T10:57:32;75073.94;;;-143.60;65.97
68329;BME280;55182;56.864;60.554;2023-02-23T10:59:59;75073.94;;;-143.60;66.37
68329;BME280;55182;56.864;60.554;2023-02-23T11:02:25;75085.97;;;-143.60;66.29
68329;BME280;55182;56.864;60.554;2023-02-23T11:04:52;75100.03;;;-143.60;66.50
68329;BME280;55182;56.864;60.554;2023-02-23T11:07:23;75110.09;;;-143.60;66.97
68329;BME280;55182;56.864;60.554;2023-02-23T11:09:48;75110.09;;;-143.60;66.98
68329;BME280;55182;56.864;60.554;2023-02-23T11:12:15;75126.16;;;-143.60;66.83
68329;BME280;55182;56.864;60.554;2023-02-23T11:14:41;75130.19;;;-143.60;67.15
68329;BME280;55182;56.864;60.554;2023-02-23T11:17:08;75128.16;;;-143.60;67.20
68329;BME280;55182;56.864;60.554;2023-02-23T11:19:48;75150.25;;;-143.60;67.14
68329;BME280;55182;56.864;60.554;2023-02-23T11:22:19;75158.31;;;-143.60;67.78
68329;BME280;55182;56.864;60.554;2023-02-23T11:24:45;75166.34;;;-143.60;67.54
68329;BME280;55182;56.864;60.554;2023-02-23T11:27:19;75174.38;;;-143.60;67.88
68329;BME280;55182;56.864;60.554;2023-02-23T11:29:45;75174.38;;;-143.60;68.25
68329;BME280;55182;56.864;60.554;2023-02-23T11:32:16;75182.41;;;-143.60;68.08
68329;BME280;55182;56.864;60.554;2023-02-23T11:34:42;75186.44;;;-143.60;68.13
68329;BME280;55182;56.864;60.554;2023-02-23T11:39:36;75188.44;;;-143.60;68.13
68329;BME280;55182;56.864;60.554;2023-02-23T11:42:15;75186.44;;;-143.60;68.29
68329;BME280;55182;56.864;60.554;2023-02-23T11:44:41;75188.44;;;-143.60;68.44
68329;BME280;55182;56.864;60.554;2023-02-23T11:47:12;75194.47;;;-143.60;68.52
68329;BME280;55182;56.864;60.554;2023-02-23T11:49:38;75196.47;;;-143.60;68.72
68329;BME280;55182;56.864;60.554;2023-02-23T11:52:09;75202.50;;;-143.60;69.07
68329;BME280;55182;56.864;60.554;2023-02-23T11:54:36;75204.50;;;-143.60;69.04
68329;BME280;55182;56.864;60.554;2023-02-23T11:57:02;75216.56;;;-143.60;69.48
68329;BME280;55182;56.864;60.554;2023-02-23T11:59:29;75218.56;;;-143.60;69.81
68329;BME280;55182;56.864;60.554;2023-02-23T12:02:03;75212.53;;;-143.60;69.89
68329;BME280;55182;56.864;60.554;2023-02-23T12:04:36;75214.56;;;-143.60;69.84
68329;BME280;55182;56.864;60.554;2023-02-23T12:10:23;75226.59;;;-143.60;70.42
68329;BME280;55182;56.864;60.554;2023-02-23T12:12:59;75234.66;;;-143.60;70.28
68329;BME280;55182;56.864;60.554;2023-02-23T12:15:33;75240.66;;;-143.60;71.02
68329;BME280;55182;56.864;60.554;2023-02-23T12:18:03;75244.69;;;-143.60;71.16
68329;BME280;55182;56.864;60.554;2023-02-23T12:20:34;75248.72;;;-143.60;71.46
68329;BME280;55182;56.864;60.554;2023-02-23T12:23:05;75274.81;;;-143.60;71.48
68329;BME280;55182;56.864;60.554;2023-02-23T12:30:47;75300.94;;;-143.60;72.73
68329;BME280;55182;56.864;60.554;2023-02-23T12:33:17;75298.94;;;-143.60;73.27
68329;BME280;55182;56.864;60.554;2023-02-23T12:35:52;75300.94;;;-143.60;73.25
68329;BME280;55182;56.864;60.554;2023-02-23T12:40:44;75308.97;;;-143.60;73.80
68329;BME280;55182;56.864;60.554;2023-02-23T12:45:53;75302.94;;;-143.60;74.14
68329;BME280;55182;56.864;60.554;2023-02-23T12:50:51;75315.00;;;-143.60;74.32
68329;BME280;55182;56.864;60.554;2023-02-23T12:58:22;75343.13;;;-143.60;73.59
68329;BME280;55182;56.864;60.554;2023-02-23T13:01:22;75359.22;;;-143.60;73.73
68329;BME280;55182;56.864;60.554;2023-02-23T13:11:36;75391.34;;;-143.60;73.93
68329;BME280;55182;56.864;60.554;2023-02-23T13:17:26;75403.41;;;-143.60;74.57
68329;BME280;55182;56.864;60.554;2023-02-23T13:19:53;75405.41;;;-143.60;74.69
68329;BME280;55182;56.864;60.554;2023-02-23T13:22:36;75397.38;;;-143.60;74.64
68329;BME280;55182;56.864;60.554;2023-02-23T13:25:28;75407.44;;;-143.60;74.28
68329;BME280;55182;56.864;60.554;2023-02-23T13:27:51;75415.47;;;-143.60;74.43
68329;BME280;55182;56.864;60.554;2023-02-23T13:30:19;75425.50;;;-143.60;74.71
68329;BME280;55182;56.864;60.554;2023-02-23T13:32:45;75427.50;;;-143.60;74.77
68329;BME280;55182;56.864;60.554;2023-02-23T13:35:15;75431.53;;;-143.60;74.81
68329;BME280;55182;56.864;60.554;2023-02-23T13:37:43;75439.56;;;-143.60;74.82
68329;BME280;55182;56.864;60.554;2023-02-23T13:42:39;75459.66;;;-143.60;75.08
68329;BME280;55182;56.864;60.554;2023-02-23T13:47:46;75467.69;;;-143.60;75.44
68329;BME280;55182;56.864;60.554;2023-02-23T13:50:21;75469.72;;;-143.60;75.92
68329;BME280;55182;56.864;60.554;2023-02-23T13:52:48;75473.72;;;-143.60;76.02
68329;BME280;55182;56.864;60.554;2023-02-23T13:57:55;75471.72;;;-143.60;75.42
68329;BME280;55182;56.864;60.554;2023-02-23T14:00:27;75471.72;;;-143.60;75.39
68329;BME280;55182;56.864;60.554;2023-02-23T14:02:52;75475.72;;;-143.60;75.60
68329;BME280;55182;56.864;60.554;2023-02-23T14:05:19;75475.72;;;-143.60;75.62
68329;BME280;55182;56.864;60.554;2023-02-23T14:07:47;75475.72;;;-143.60;75.71
68329;BME280;55182;56.864;60.554;2023-02-23T14:10:19;75471.72;;;-143.60;75.90